Time;durP1;ratioP1;P1;durP2;ratioP2;P2;SDS_P1;SDS_P2;PMS_P1;PMS_P2;Temp;Humidity;BMP_temperature;BMP_pressure;BME280_temperature;BME280_humidity;BME280_pressure;Samples;Min_cycle;Max_cycle;Signal;HPM_P1;HPM_P2
2023/09/10 00:01:25;;;;;;;17.67;6.97;;;;;;;;;;5016475;28;20073;-96
2023/09/10 00:03:51;;;;;;;13.10;7.35;;;;;;;;;;5017228;28;20034;-95
2023/09/10 00:06:17;;;;;;;13.52;6.75;;;;;;;;;;5021328;28;20045;-95
2023/09/10 00:08:44;;;;;;;14.40;7.30;;;;;;;;;;5021721;28;20037;-95
2023/09/10 00:11:10;;;;;;;15.65;7.53;;;;;;;;;;5020989;28;20434;-96
2023/09/10 00:13:36;;;;;;;17.17;7.57;;;;;;;;;;5020374;28;20308;-96
2023/09/10 00:16:02;;;;;;;14.57;7.75;;;;;;;;;;5020044;28;20029;-96
2023/09/10 00:18:29;;;;;;;15.40;8.43;;;;;;;;;;5021039;28;20034;-96
2023/09/10 00:20:55;;;;;;;13.70;7.97;;;;;;;;;;5020100;28;20033;-94
2023/09/10 00:23:21;;;;;;;14.77;8.02;;;;;;;;;;5021054;28;20022;-95
2023/09/10 00:25:47;;;;;;;18.85;9.00;;;;;;;;;;5021151;28;20022;-96
2023/09/10 00:28:13;;;;;;;21.52;8.10;;;;;;;;;;5020542;28;20068;-95
2023/09/10 00:30:39;;;;;;;14.70;8.43;;;;;;;;;;5019758;28;20061;-94
2023/09/10 00:33:06;;;;;;;18.60;8.77;;;;;;;;;;5021046;28;20057;-96
2023/09/10 00:35:32;;;;;;;14.18;7.50;;;;;;;;;;5020273;28;20404;-96
2023/09/10 00:37:58;;;;;;;17.10;8.43;;;;;;;;;;5020795;28;20037;-95
2023/09/10 00:41:11;;;;;;;19.20;8.77;;;;;;;;;;5020037;28;20037;-95
2023/09/10 00:43:38;;;;;;;14.27;8.52;;;;;;;;;;5025856;28;20129;-96
2023/09/10 00:46:05;;;;;;;25.63;10.90;;;;;;;;;;5027695;28;20038;-96
2023/09/10 00:48:32;;;;;;;31.92;13.80;;;;;;;;;;5027995;28;20025;-96
2023/09/10 00:50:58;;;;;;;42.28;16.77;;;;;;;;;;5021968;28;20026;-94
2023/09/10 00:53:24;;;;;;;45.63;18.55;;;;;;;;;;5019603;28;20029;-96
2023/09/10 00:55:51;;;;;;;42.65;18.75;;;;;;;;;;5020449;28;20022;-95
2023/09/10 00:58:18;;;;;;;45.53;18.52;;;;;;;;;;5019441;28;20026;-96
2023/09/10 01:00:45;;;;;;;41.90;19.10;;;;;;;;;;5019950;28;20030;-96
2023/09/10 01:03:11;;;;;;;42.35;18.50;;;;;;;;;;5020549;28;20320;-94
2023/09/10 01:05:37;;;;;;;39.85;16.67;;;;;;;;;;5020091;28;20412;-94
2023/09/10 01:08:03;;;;;;;39.38;17.17;;;;;;;;;;5019293;28;20117;-95
2023/09/10 01:10:33;;;;;;;49.10;17.70;;;;;;;;;;5020132;28;20065;-95
2023/09/10 01:12:59;;;;;;;40.10;15.75;;;;;;;;;;5019173;28;20037;-94
2023/09/10 01:15:25;;;;;;;41.03;17.17;;;;;;;;;;5020048;28;20044;-96
2023/09/10 01:18:00;;;;;;;37.15;16.80;;;;;;;;;;5019336;28;20038;-96
2023/09/10 01:20:45;;;;;;;39.30;15.27;;;;;;;;;;5019455;28;20030;-95
2023/09/10 01:23:15;;;;;;;33.17;13.95;;;;;;;;;;5018993;28;20034;-95
2023/09/10 01:25:41;;;;;;;24.38;13.18;;;;;;;;;;5020155;28;20025;-96
2023/09/10 01:28:07;;;;;;;25.60;13.00;;;;;;;;;;5018760;28;20050;-96
2023/09/10 01:30:36;;;;;;;28.15;13.07;;;;;;;;;;5019851;28;20380;-96
2023/09/10 01:33:12;;;;;;;27.00;13.55;;;;;;;;;;5019580;28;20045;-95
2023/09/10 01:35:41;;;;;;;26.58;12.85;;;;;;;;;;5018859;28;20064;-95
2023/09/10 01:38:16;;;;;;;28.67;13.38;;;;;;;;;;5018454;28;20025;-96
2023/09/10 01:41:20;;;;;;;27.17;12.27;;;;;;;;;;5018648;28;20420;-96
2023/09/10 01:43:47;;;;;;;31.33;13.05;;;;;;;;;;5018479;28;20074;-95
2023/09/10 01:46:14;;;;;;;25.35;12.30;;;;;;;;;;5018579;28;20026;-96
2023/09/10 01:48:40;;;;;;;21.58;12.57;;;;;;;;;;5018317;28;20030;-95
2023/09/10 01:51:06;;;;;;;25.15;11.38;;;;;;;;;;5019419;28;20026;-95
2023/09/10 01:59:39;;;;;;;21.25;10.95;;;;;;;;;;5019197;28;20072;-95
2023/09/10 02:02:05;;;;;;;19.60;10.15;;;;;;;;;;5017783;28;20048;-96
2023/09/10 02:04:31;;;;;;;20.10;10.65;;;;;;;;;;5018789;28;20034;-94
2023/09/10 02:06:57;;;;;;;19.35;10.30;;;;;;;;;;5017937;28;20121;-96
2023/09/10 02:12:27;;;;;;;17.13;9.93;;;;;;;;;;5014313;28;20048;-94
2023/09/10 02:14:53;;;;;;;20.88;10.05;;;;;;;;;;5021035;28;20038;-94
2023/09/10 02:17:19;;;;;;;17.00;9.60;;;;;;;;;;5020193;28;20026;-96
2023/09/10 02:19:46;;;;;;;17.40;9.30;;;;;;;;;;5020930;28;20065;-96
2023/09/10 02:22:12;;;;;;;15.35;9.63;;;;;;;;;;5018378;28;20030;-95
2023/09/10 02:27:41;;;;;;;15.63;8.88;;;;;;;;;;5018334;28;20072;-95
2023/09/10 02:30:08;;;;;;;19.50;9.20;;;;;;;;;;5019259;28;20026;-95
2023/09/10 02:32:35;;;;;;;18.70;9.45;;;;;;;;;;5018616;28;20054;-95
2023/09/10 02:35:01;;;;;;;16.60;9.38;;;;;;;;;;5017676;28;20149;-95
2023/09/10 02:37:27;;;;;;;17.20;8.73;;;;;;;;;;5018027;28;20030;-95
2023/09/10 02:42:58;;;;;;;29.73;9.98;;;;;;;;;;5021059;28;20474;-95
2023/09/10 02:45:24;;;;;;;13.80;9.32;;;;;;;;;;5008921;28;20026;-95
2023/09/10 02:47:54;;;;;;;17.50;9.25;;;;;;;;;;5034713;28;20068;-96
2023/09/10 02:50:21;;;;;;;17.25;10.23;;;;;;;;;;5006569;28;20033;-92
2023/09/10 02:52:47;;;;;;;13.13;9.18;;;;;;;;;;5017856;28;20133;-93
2023/09/10 02:55:16;;;;;;;15.45;9.13;;;;;;;;;;5017247;28;20026;-93
2023/09/10 02:57:42;;;;;;;15.27;8.60;;;;;;;;;;5018122;28;20034;-92
2023/09/10 03:00:11;;;;;;;16.00;8.38;;;;;;;;;;5018455;28;20088;-92
2023/09/10 03:02:38;;;;;;;16.13;9.45;;;;;;;;;;5018048;28;20034;-93
2023/09/10 03:05:04;;;;;;;12.68;8.60;;;;;;;;;;5018498;28;20026;-93
2023/09/10 03:07:30;;;;;;;14.52;9.00;;;;;;;;;;5017325;28;20124;-93
2023/09/10 03:09:56;;;;;;;16.13;8.90;;;;;;;;;;5018067;28;20025;-93
2023/09/10 03:12:26;;;;;;;16.08;9.35;;;;;;;;;;5018072;28;20396;-93
2023/09/10 03:14:52;;;;;;;13.13;9.23;;;;;;;;;;5017004;28;20036;-94
2023/09/10 03:17:19;;;;;;;13.25;8.48;;;;;;;;;;5016809;28;20416;-94
2023/09/10 03:19:45;;;;;;;14.00;8.30;;;;;;;;;;5018136;28;20030;-95
2023/09/10 03:22:12;;;;;;;12.45;8.75;;;;;;;;;;5017034;28;20121;-93
2023/09/10 03:30:45;;;;;;;14.25;9.07;;;;;;;;;;5017828;28;20049;-93
2023/09/10 03:33:11;;;;;;;19.23;8.90;;;;;;;;;;5016796;28;20140;-95
2023/09/10 03:35:37;;;;;;;12.05;8.38;;;;;;;;;;5017685;28;20080;-93
2023/09/10 03:38:03;;;;;;;13.45;8.55;;;;;;;;;;5017873;28;20339;-93
2023/09/10 03:40:29;;;;;;;13.77;8.68;;;;;;;;;;5020983;28;20037;-95
2023/09/10 03:42:55;;;;;;;12.80;8.68;;;;;;;;;;5020839;28;20057;-94
2023/09/10 03:45:21;;;;;;;15.38;8.50;;;;;;;;;;5021000;28;20038;-93
2023/09/10 03:47:47;;;;;;;13.98;8.60;;;;;;;;;;5021459;28;20061;-94
2023/09/10 03:50:15;;;;;;;19.05;10.77;;;;;;;;;;5020675;28;20025;-94
2023/09/10 03:52:41;;;;;;;29.23;13.73;;;;;;;;;;5020972;28;20427;-93
2023/09/10 03:55:44;;;;;;;30.25;13.02;;;;;;;;;;5020685;28;20022;-94
2023/09/10 03:58:10;;;;;;;26.98;13.15;;;;;;;;;;5021467;28;20030;-95
2023/09/10 04:00:36;;;;;;;25.30;11.93;;;;;;;;;;5021260;28;20037;-93
2023/09/10 04:03:04;;;;;;;25.10;12.45;;;;;;;;;;5020079;28;20065;-93
2023/09/10 04:05:30;;;;;;;25.52;13.55;;;;;;;;;;5021517;28;20340;-94
2023/09/10 04:07:56;;;;;;;23.90;11.63;;;;;;;;;;5021290;28;20040;-95
2023/09/10 04:10:22;;;;;;;22.45;11.32;;;;;;;;;;5021485;28;20104;-94
2023/09/10 04:12:50;;;;;;;30.55;13.25;;;;;;;;;;5020242;28;20057;-94
2023/09/10 04:15:17;;;;;;;25.10;12.82;;;;;;;;;;5020180;28;20080;-94
2023/09/10 04:17:43;;;;;;;29.90;14.10;;;;;;;;;;5020196;28;20117;-92
2023/09/10 04:20:09;;;;;;;30.42;14.50;;;;;;;;;;5019934;28;20049;-94
2023/09/10 04:22:35;;;;;;;27.10;12.85;;;;;;;;;;5019746;28;20036;-94
2023/09/10 04:25:02;;;;;;;25.23;13.38;;;;;;;;;;5020109;28;20080;-94
2023/09/10 04:27:28;;;;;;;27.77;13.75;;;;;;;;;;5021346;28;20291;-93
2023/09/10 04:29:54;;;;;;;24.10;13.48;;;;;;;;;;5019985;28;20057;-95
2023/09/10 04:32:21;;;;;;;25.73;14.00;;;;;;;;;;5019666;28;20050;-95
2023/09/10 04:34:47;;;;;;;28.27;14.98;;;;;;;;;;5020003;28;20022;-94
2023/09/10 04:37:13;;;;;;;24.27;13.20;;;;;;;;;;5020754;28;20033;-95
2023/09/10 04:39:39;;;;;;;28.13;14.20;;;;;;;;;;5021050;28;20022;-94
2023/09/10 04:42:05;;;;;;;29.40;13.35;;;;;;;;;;5020745;28;20121;-92
2023/09/10 04:44:31;;;;;;;34.72;15.50;;;;;;;;;;5019814;28;20025;-93
2023/09/10 04:46:57;;;;;;;29.50;14.38;;;;;;;;;;5020920;28;20030;-93
2023/09/10 04:49:24;;;;;;;37.60;15.75;;;;;;;;;;5018983;28;20022;-92
2023/09/10 04:51:50;;;;;;;45.78;16.13;;;;;;;;;;5020127;28;20315;-92
2023/09/10 05:00:50;;;;;;;35.03;16.92;;;;;;;;;;5020123;28;20159;-93
2023/09/10 05:03:17;;;;;;;47.85;18.05;;;;;;;;;;5020347;28;20037;-94
2023/09/10 05:05:43;;;;;;;43.47;19.15;;;;;;;;;;5019291;28;20324;-93
2023/09/10 05:08:09;;;;;;;50.03;19.40;;;;;;;;;;5019317;28;20084;-92
2023/09/10 05:10:53;;;;;;;38.13;17.90;;;;;;;;;;5020089;28;20022;-92
2023/09/10 05:13:20;;;;;;;40.20;17.63;;;;;;;;;;5019433;28;20428;-93
2023/09/10 05:15:49;;;;;;;40.80;16.40;;;;;;;;;;5019201;28;20124;-93
2023/09/10 05:18:18;;;;;;;43.35;21.80;;;;;;;;;;5020105;28;20037;-95
2023/09/10 05:20:44;;;;;;;63.05;30.88;;;;;;;;;;5018948;28;20033;-94
2023/09/10 05:23:10;;;;;;;47.97;24.23;;;;;;;;;;5018955;28;20479;-95
2023/09/10 05:28:53;;;;;;;35.58;17.67;;;;;;;;;;5019969;28;20064;-95
2023/09/10 05:31:19;;;;;;;30.67;17.00;;;;;;;;;;5019207;28;20435;-95
2023/09/10 05:33:45;;;;;;;24.10;14.07;;;;;;;;;;5019354;28;20034;-94
2023/09/10 05:36:11;;;;;;;29.73;15.15;;;;;;;;;;5019658;28;20072;-93
2023/09/10 05:38:37;;;;;;;21.75;13.63;;;;;;;;;;5019880;28;20034;-93
2023/09/10 05:44:07;;;;;;;18.55;12.40;;;;;;;;;;5019537;28;20076;-93
2023/09/10 05:46:33;;;;;;;21.17;12.70;;;;;;;;;;5019718;28;20136;-92
2023/09/10 05:48:59;;;;;;;20.40;12.85;;;;;;;;;;5018379;28;20489;-93
2023/09/10 05:51:25;;;;;;;21.20;12.65;;;;;;;;;;5018884;28;20034;-94
2023/09/10 05:53:52;;;;;;;17.52;11.60;;;;;;;;;;5018304;28;20117;-94
2023/09/10 05:56:18;;;;;;;19.08;11.05;;;;;;;;;;5019520;28;20030;-96
2023/09/10 05:58:44;;;;;;;17.02;10.98;;;;;;;;;;5018874;28;20041;-93
2023/09/10 06:01:10;;;;;;;17.23;10.43;;;;;;;;;;5017430;28;20036;-94
2023/09/10 06:03:36;;;;;;;17.45;10.63;;;;;;;;;;5017813;28;20033;-93
2023/09/10 06:06:02;;;;;;;17.17;10.95;;;;;;;;;;5019007;28;20462;-93
2023/09/10 06:08:32;;;;;;;24.45;12.52;;;;;;;;;;5018054;28;20049;-95
2023/09/10 06:10:58;;;;;;;19.83;11.68;;;;;;;;;;5018730;28;20117;-93
2023/09/10 06:13:24;;;;;;;17.08;10.73;;;;;;;;;;5018483;28;20034;-93
2023/09/10 06:15:50;;;;;;;17.10;11.48;;;;;;;;;;5018973;28;20030;-93
2023/09/10 06:18:16;;;;;;;14.02;10.48;;;;;;;;;;5019196;28;20293;-92
2023/09/10 06:20:42;;;;;;;19.67;11.05;;;;;;;;;;5018931;28;20034;-93
2023/09/10 06:23:08;;;;;;;14.63;9.60;;;;;;;;;;5018723;28;20029;-95
2023/09/10 06:25:34;;;;;;;16.70;9.38;;;;;;;;;;5018591;28;20022;-93
2023/09/10 06:28:00;;;;;;;12.05;9.20;;;;;;;;;;5018618;28;20397;-94
2023/09/10 06:30:26;;;;;;;15.32;9.52;;;;;;;;;;5017787;28;20034;-92
2023/09/10 06:32:53;;;;;;;13.18;8.95;;;;;;;;;;5017786;28;20053;-95
2023/09/10 06:35:19;;;;;;;20.60;9.63;;;;;;;;;;5019173;28;20022;-96
2023/09/10 06:37:46;;;;;;;15.65;9.52;;;;;;;;;;5018531;28;20054;-96
2023/09/10 06:40:13;;;;;;;13.48;9.48;;;;;;;;;;5017105;28;20022;-96
2023/09/10 06:42:39;;;;;;;13.43;9.02;;;;;;;;;;4997805;28;20053;-93
2023/09/10 06:45:08;;;;;;;13.75;9.00;;;;;;;;;;4998794;28;20456;-94
2023/09/10 06:47:35;;;;;;;15.65;8.90;;;;;;;;;;4998032;28;20026;-96
2023/09/10 06:50:01;;;;;;;15.43;9.43;;;;;;;;;;5017237;28;20018;-93
2023/09/10 06:52:27;;;;;;;19.00;9.70;;;;;;;;;;5012932;28;20034;-93
2023/09/10 06:54:54;;;;;;;14.63;9.23;;;;;;;;;;5018266;28;20033;-93
2023/09/10 06:57:20;;;;;;;17.95;9.50;;;;;;;;;;5019059;28;20033;-96
2023/09/10 06:59:46;;;;;;;11.63;8.75;;;;;;;;;;5017465;28;20336;-95
2023/09/10 07:02:12;;;;;;;16.05;9.15;;;;;;;;;;5017822;28;20034;-95
2023/09/10 07:04:47;;;;;;;13.30;8.60;;;;;;;;;;5017949;28;20105;-96
2023/09/10 07:07:13;;;;;;;13.18;9.00;;;;;;;;;;5017087;28;20045;-94
2023/09/10 07:12:43;;;;;;;15.80;8.70;;;;;;;;;;5017910;28;20095;-93
2023/09/10 07:15:09;;;;;;;15.52;9.23;;;;;;;;;;5018363;28;20029;-93
2023/09/10 07:17:36;;;;;;;13.95;8.98;;;;;;;;;;5017293;28;20033;-94
2023/09/10 07:20:02;;;;;;;13.68;9.05;;;;;;;;;;5019120;28;20405;-94
2023/09/10 07:22:28;;;;;;;12.45;8.40;;;;;;;;;;5016641;28;20332;-93
2023/09/10 07:24:56;;;;;;;13.82;8.80;;;;;;;;;;5017479;28;20050;-94
2023/09/10 07:27:22;;;;;;;14.25;8.77;;;;;;;;;;5150745;22;20052;-96
2023/09/10 07:29:49;;;;;;;13.50;8.48;;;;;;;;;;5044000;28;20045;-96
2023/09/10 07:32:15;;;;;;;14.75;9.25;;;;;;;;;;5034781;28;20067;-95
2023/09/10 07:34:43;;;;;;;13.40;9.23;;;;;;;;;;5018200;28;20436;-96
2023/09/10 07:37:09;;;;;;;14.75;8.80;;;;;;;;;;5017730;28;20038;-94
2023/09/10 07:39:35;;;;;;;13.10;7.95;;;;;;;;;;5033867;28;20030;-93
2023/09/10 07:50:37;;;;;;;32.47;13.60;;;;;;;;;;5055441;28;20056;-93
2023/09/10 07:53:05;;;;;;;17.85;11.43;;;;;;;;;;5040071;28;20036;-94
2023/09/10 07:55:35;;;;;;;38.83;15.48;;;;;;;;;;5057900;28;20411;-92
2023/09/10 07:58:02;;;;;;;27.02;12.55;;;;;;;;;;5058188;28;20079;-94
2023/09/10 08:00:29;;;;;;;22.08;10.88;;;;;;;;;;5058207;28;20025;-93
2023/09/10 08:02:57;;;;;;;13.35;7.93;;;;;;;;;;5056715;28;20042;-92
2023/09/10 08:05:23;;;;;;;22.55;9.27;;;;;;;;;;5057017;28;20104;-90
2023/09/10 08:07:49;;;;;;;19.73;10.57;;;;;;;;;;5056870;28;20276;-90
2023/09/10 08:10:15;;;;;;;15.10;8.82;;;;;;;;;;5040106;28;20051;-93
2023/09/10 08:12:41;;;;;;;18.30;10.20;;;;;;;;;;5057241;28;20342;-92
2023/09/10 08:15:10;;;;;;;22.67;12.45;;;;;;;;;;5039812;28;20319;-94
2023/09/10 08:17:36;;;;;;;17.27;9.30;;;;;;;;;;5041686;28;20032;-93
2023/09/10 08:20:03;;;;;;;12.63;6.80;;;;;;;;;;5039610;28;20041;-91
